createdAt,value
2023-02-11T00:01:37.794Z,97.20
2023-02-11T00:04:05.044Z,97.20
2023-02-11T00:06:32.171Z,97.20
2023-02-11T00:08:59.319Z,97.30
2023-02-11T00:11:30.175Z,97.30
2023-02-11T00:13:57.453Z,97.30
2023-02-11T00:16:24.256Z,97.30
2023-02-11T00:18:53.045Z,97.40
2023-02-11T00:21:20.925Z,97.40
2023-02-11T00:23:47.944Z,97.40
2023-02-11T00:26:27.937Z,97.40
2023-02-11T00:28:54.889Z,97.40
2023-02-11T00:31:22.591Z,97.40
2023-02-11T00:33:49.687Z,97.50
2023-02-11T00:36:17.539Z,97.50
2023-02-11T00:38:44.580Z,97.60
2023-02-11T00:41:11.833Z,97.50
2023-02-11T00:43:38.577Z,97.60
2023-02-11T00:46:05.751Z,97.60
2023-02-11T00:48:32.691Z,97.60
2023-02-11T00:50:59.720Z,97.60
2023-02-11T00:53:26.419Z,97.60
2023-02-11T00:55:53.100Z,97.70
2023-02-11T00:58:19.938Z,97.70
2023-02-11T01:00:46.669Z,98.00
2023-02-11T01:03:13.325Z,97.70
2023-02-11T01:05:40.414Z,97.80
2023-02-11T01:08:07.232Z,97.80
2023-02-11T01:10:33.961Z,97.80
2023-02-11T01:13:01.767Z,98.10
2023-02-11T01:15:28.548Z,97.90
2023-02-11T01:17:55.623Z,97.90
2023-02-11T01:20:23.254Z,97.90
2023-02-11T01:22:50.066Z,98.00
2023-02-11T01:25:16.776Z,98.00
2023-02-11T01:27:43.498Z,98.00
2023-02-11T01:30:10.547Z,98.00
2023-02-11T01:32:37.520Z,98.00
2023-02-11T01:35:04.620Z,98.10
2023-02-11T01:37:33.206Z,98.10
2023-02-11T01:40:01.214Z,98.10
2023-02-11T01:42:28.830Z,98.10
2023-02-11T01:44:55.811Z,98.10
2023-02-11T01:47:22.557Z,98.20
2023-02-11T01:49:50.173Z,98.20
2023-02-11T01:52:19.683Z,98.20
2023-02-11T01:55:06.100Z,98.20
2023-02-11T01:57:34.095Z,98.20
2023-02-11T02:00:06.945Z,98.20
2023-02-11T02:03:08.956Z,98.30
2023-02-11T02:05:38.531Z,98.30
2023-02-11T02:08:25.576Z,98.30
2023-02-11T02:10:56.625Z,98.30
2023-02-11T02:13:23.754Z,98.30
2023-02-11T02:15:52.535Z,98.30
2023-02-11T02:18:25.597Z,98.40
2023-02-11T02:21:11.116Z,98.40
2023-02-11T02:23:51.640Z,98.40
2023-02-11T02:26:33.375Z,98.40
2023-02-11T02:29:09.389Z,98.40
2023-02-11T02:31:39.559Z,98.40
2023-02-11T02:34:19.885Z,98.50
2023-02-11T02:36:52.750Z,98.50
2023-02-11T02:39:20.919Z,98.50
2023-02-11T02:41:47.691Z,98.50
2023-02-11T02:44:14.350Z,98.50
2023-02-11T02:46:41.413Z,98.50
2023-02-11T02:49:12.996Z,98.60
2023-02-11T02:51:39.850Z,98.60
2023-02-11T02:54:19.024Z,98.60
2023-02-11T02:56:54.989Z,98.60
2023-02-11T02:59:21.726Z,98.60
2023-02-11T03:01:56.501Z,98.60
2023-02-11T03:04:25.300Z,98.60
2023-02-11T03:06:53.589Z,98.60
2023-02-11T03:09:22.591Z,98.70
2023-02-11T03:11:49.316Z,98.70
2023-02-11T03:14:17.698Z,98.70
2023-02-11T03:16:44.877Z,98.70
2023-02-11T03:19:22.002Z,98.70
2023-02-11T03:21:49.227Z,98.70
2023-02-11T03:24:28.696Z,98.70
2023-02-11T03:26:56.784Z,98.80
2023-02-11T03:29:31.221Z,98.80
2023-02-11T03:31:58.111Z,98.80
2023-02-11T03:34:30.320Z,98.80
2023-02-11T03:36:59.349Z,98.80
2023-02-11T03:39:28.412Z,98.80
2023-02-11T03:41:55.229Z,98.80
2023-02-11T03:44:21.957Z,98.80
2023-02-11T03:46:49.104Z,98.80
2023-02-11T03:49:16.411Z,98.80
2023-02-11T03:51:43.218Z,98.80
2023-02-11T03:54:11.260Z,98.80
2023-02-11T03:56:46.158Z,98.70
2023-02-11T03:59:12.897Z,98.70
2023-02-11T04:01:39.597Z,98.80
2023-02-11T04:04:06.416Z,98.80
2023-02-11T04:06:33.150Z,98.90
2023-02-11T04:09:00.109Z,98.90
2023-02-11T04:11:26.952Z,99.00
2023-02-11T04:13:53.752Z,99.00
2023-02-11T04:16:20.539Z,99.00
2023-02-11T04:18:47.473Z,99.00
2023-02-11T04:21:14.244Z,99.00
2023-02-11T04:23:41.143Z,98.90
2023-02-11T04:26:08.052Z,99.00
2023-02-11T04:28:35.186Z,99.00
2023-02-11T04:31:02.104Z,99.10
2023-02-11T04:33:28.845Z,99.10
2023-02-11T04:35:55.667Z,99.10
2023-02-11T04:38:24.212Z,99.20
2023-02-11T04:40:51.033Z,99.20
2023-02-11T04:43:17.716Z,99.20
2023-02-11T04:45:44.556Z,99.20
2023-02-11T04:48:11.333Z,99.20
2023-02-11T04:50:38.189Z,99.20
2023-02-11T04:53:04.970Z,99.20
2023-02-11T04:55:31.704Z,99.30
2023-02-11T04:57:58.781Z,99.30
2023-02-11T05:00:25.610Z,99.20
2023-02-11T05:02:52.344Z,99.20
2023-02-11T05:05:19.071Z,99.20
2023-02-11T05:07:45.842Z,99.30
2023-02-11T05:10:12.663Z,99.30
2023-02-11T05:12:39.403Z,99.30
2023-02-11T05:15:06.334Z,99.30
2023-02-11T05:17:33.025Z,99.30
2023-02-11T05:20:00.055Z,99.30
2023-02-11T05:22:26.760Z,99.30
2023-02-11T05:24:53.523Z,99.40
2023-02-11T05:27:20.438Z,99.30
2023-02-11T05:29:47.156Z,99.30
2023-02-11T05:32:13.837Z,99.40
2023-02-11T05:34:40.603Z,99.40
2023-02-11T05:37:07.563Z,99.40
2023-02-11T05:39:34.566Z,99.40
2023-02-11T05:42:01.260Z,99.40
2023-02-11T05:44:27.943Z,99.40
2023-02-11T05:46:54.898Z,99.40
2023-02-11T05:49:21.680Z,99.40
2023-02-11T05:51:48.511Z,99.40
2023-02-11T05:54:15.244Z,99.40
2023-02-11T05:56:44.645Z,99.40
2023-02-11T05:59:12.773Z,99.40
2023-02-11T06:01:39.500Z,99.50
2023-02-11T06:04:06.417Z,99.40
2023-02-11T06:06:33.115Z,99.40
2023-02-11T06:08:59.890Z,99.50
2023-02-11T06:11:26.791Z,99.50
2023-02-11T06:13:53.466Z,99.50
2023-02-11T06:16:20.603Z,99.60
2023-02-11T06:18:47.432Z,99.50
2023-02-11T06:21:14.212Z,99.50
2023-02-11T06:23:41.022Z,99.50
2023-02-11T06:26:08.467Z,99.50
2023-02-11T06:28:36.147Z,99.50
2023-02-11T06:31:06.877Z,99.50
2023-02-11T06:33:34.440Z,99.60
2023-02-11T06:36:01.405Z,99.60
2023-02-11T06:38:28.282Z,99.60
2023-02-11T06:40:55.295Z,99.60
2023-02-11T06:43:22.016Z,99.60
2023-02-11T06:45:55.300Z,99.60
2023-02-11T06:48:22.430Z,99.60
2023-02-11T06:50:49.113Z,99.60
2023-02-11T06:53:15.810Z,99.60
2023-02-11T06:55:42.501Z,99.60
2023-02-11T06:58:09.464Z,99.60
2023-02-11T07:00:36.810Z,99.60
2023-02-11T07:03:03.859Z,99.60
2023-02-11T07:05:30.809Z,99.60
2023-02-11T07:07:57.579Z,99.70
2023-02-11T07:10:24.321Z,99.70
2023-02-11T07:12:51.204Z,99.60
2023-02-11T07:15:18.184Z,99.70
2023-02-11T07:17:45.003Z,99.60
2023-02-11T07:20:14.690Z,99.60
2023-02-11T07:22:41.451Z,99.60
2023-02-11T07:25:11.224Z,99.70
2023-02-11T07:27:38.033Z,99.50
2023-02-11T07:30:07.264Z,99.70
2023-02-11T07:32:34.150Z,99.70
2023-02-11T07:35:00.993Z,99.70
2023-02-11T07:37:28.326Z,99.70
2023-02-11T07:39:55.228Z,99.70
2023-02-11T07:42:22.038Z,99.70
2023-02-11T07:44:50.523Z,99.70
2023-02-11T07:47:17.653Z,99.70
2023-02-11T07:49:44.530Z,99.70
2023-02-11T07:52:11.412Z,99.80
2023-02-11T07:54:38.352Z,99.80
2023-02-11T07:57:05.164Z,99.80
2023-02-11T07:59:31.967Z,99.80
2023-02-11T08:01:58.859Z,99.80
2023-02-11T08:04:25.657Z,99.80
2023-02-11T08:06:56.528Z,99.80
2023-02-11T08:09:25.094Z,99.80
2023-02-11T08:11:51.837Z,99.80
2023-02-11T08:14:21.685Z,99.80
2023-02-11T08:16:48.536Z,99.80
2023-02-11T08:19:15.861Z,99.80
2023-02-11T08:21:42.769Z,99.80
2023-02-11T08:24:09.597Z,99.80
2023-02-11T08:26:36.342Z,99.80
2023-02-11T08:29:04.307Z,99.80
2023-02-11T08:31:35.294Z,99.80
2023-02-11T08:34:02.544Z,99.80
2023-02-11T08:36:30.099Z,99.80
2023-02-11T08:39:12.136Z,99.80
2023-02-11T08:41:44.126Z,99.80
2023-02-11T08:44:11.112Z,99.80
2023-02-11T08:46:37.937Z,99.80
2023-02-11T08:49:04.668Z,99.80
2023-02-11T08:51:31.848Z,99.70
2023-02-11T08:53:58.862Z,99.70
2023-02-11T08:56:25.898Z,99.70
2023-02-11T08:58:52.744Z,99.70
2023-02-11T09:01:23.006Z,99.70
2023-02-11T09:03:49.882Z,99.70
2023-02-11T09:06:18.632Z,99.70
2023-02-11T09:08:46.666Z,99.70
2023-02-11T09:11:13.485Z,99.70
2023-02-11T09:13:41.345Z,99.60
2023-02-11T09:16:08.265Z,99.60
2023-02-11T09:18:34.988Z,99.50
2023-02-11T09:21:02.540Z,99.60
2023-02-11T09:23:29.466Z,99.60
2023-02-11T09:25:56.570Z,99.60
2023-02-11T09:28:23.325Z,99.60
2023-02-11T09:30:50.479Z,99.50
2023-02-11T09:33:17.390Z,99.60
2023-02-11T09:35:44.072Z,99.60
2023-02-11T09:38:10.805Z,99.60
2023-02-11T09:40:37.992Z,99.60
2023-02-11T09:43:09.065Z,99.50
2023-02-11T09:45:35.857Z,99.60
2023-02-11T09:48:07.088Z,99.60
2023-02-11T09:50:34.547Z,99.50
2023-02-11T09:53:04.597Z,99.50
2023-02-11T09:55:38.065Z,99.50
2023-02-11T09:58:07.641Z,99.40
2023-02-11T10:00:39.219Z,99.40
2023-02-11T10:03:09.271Z,99.40
2023-02-11T10:05:48.828Z,99.30
2023-02-11T10:08:24.899Z,99.40
2023-02-11T10:11:04.444Z,99.30
2023-02-11T10:13:50.377Z,99.20
2023-02-11T10:16:20.764Z,99.20
2023-02-11T10:19:08.384Z,99.20
2023-02-11T10:21:36.126Z,99.20
2023-02-11T10:24:03.918Z,99.20
2023-02-11T10:26:31.271Z,99.10
2023-02-11T10:28:59.930Z,99.10
2023-02-11T10:31:34.735Z,99.10
2023-02-11T10:34:03.299Z,99.10
2023-02-11T10:36:30.721Z,99.10
2023-02-11T10:39:02.327Z,99.10
2023-02-11T10:41:38.886Z,99.10
2023-02-11T10:44:08.761Z,99.00
2023-02-11T10:46:36.910Z,99.00
2023-02-11T10:49:07.943Z,99.00
2023-02-11T10:54:32.519Z,99.00
2023-02-11T10:57:00.257Z,98.90
2023-02-11T10:59:27.474Z,98.90
2023-02-11T11:01:56.765Z,98.90
2023-02-11T11:04:30.123Z,98.80
2023-02-11T11:06:57.395Z,98.90
2023-02-11T11:09:28.250Z,98.80
2023-02-11T11:11:55.607Z,98.80
2023-02-11T11:14:26.088Z,98.90
2023-02-11T11:16:53.632Z,98.80
2023-02-11T11:19:21.961Z,98.80
2023-02-11T11:21:52.747Z,98.80
2023-02-11T11:24:21.592Z,98.70
2023-02-11T11:26:52.365Z,99.00
2023-02-11T11:29:29.042Z,98.70
2023-02-11T11:31:59.297Z,98.60
2023-02-11T11:34:32.983Z,98.60
2023-02-11T11:37:00.194Z,98.70
2023-02-11T11:39:30.518Z,98.60
2023-02-11T11:42:02.479Z,98.60
2023-02-11T11:44:33.084Z,98.50
2023-02-11T11:47:16.821Z,98.50
2023-02-11T11:50:02.603Z,98.50
2023-02-11T11:52:29.312Z,98.40
2023-02-11T11:54:58.764Z,98.50
2023-02-11T11:57:29.911Z,98.50
2023-02-11T11:59:57.568Z,98.50
2023-02-11T12:02:27.794Z,98.40
2023-02-11T12:05:03.748Z,98.40
2023-02-11T12:07:49.458Z,98.30
2023-02-11T12:10:34.811Z,98.30
2023-02-11T12:13:04.922Z,98.30
2023-02-11T12:15:31.748Z,98.40
2023-02-11T12:18:06.114Z,98.30
2023-02-11T12:20:44.012Z,98.20
2023-02-11T12:23:29.656Z,98.20
2023-02-11T12:25:58.697Z,98.20
2023-02-11T12:28:45.000Z,98.20
2023-02-11T12:31:21.138Z,98.30
2023-02-11T12:34:03.497Z,98.30
2023-02-11T12:36:40.915Z,98.30
2023-02-11T12:39:11.715Z,98.20
2023-02-11T12:42:10.698Z,98.20
2023-02-11T12:44:40.948Z,98.20
2023-02-11T12:47:16.968Z,98.10
2023-02-11T12:49:50.203Z,98.10
2023-02-11T12:52:32.364Z,98.10
2023-02-11T12:55:11.895Z,98.00
2023-02-11T12:57:38.790Z,98.00
2023-02-11T13:00:17.270Z,98.00
2023-02-11T13:03:00.944Z,97.90
2023-02-11T13:05:30.725Z,97.90
2023-02-11T13:07:59.968Z,98.00
2023-02-11T13:10:32.883Z,97.90
2023-02-11T13:13:18.107Z,97.90
2023-02-11T13:15:50.275Z,97.90
2023-02-11T13:18:37.346Z,97.90
2023-02-11T13:21:16.667Z,97.80
2023-02-11T13:24:05.657Z,97.70
2023-02-11T13:26:38.725Z,97.70
2023-02-11T13:29:05.373Z,97.70
2023-02-11T13:31:32.311Z,97.70
2023-02-11T13:33:59.222Z,97.70
2023-02-11T13:36:28.825Z,97.70
2023-02-11T13:39:00.483Z,97.60
2023-02-11T13:41:27.487Z,97.70
2023-02-11T13:44:00.111Z,97.70
2023-02-11T13:46:27.856Z,97.70
2023-02-11T13:48:54.676Z,97.70
2023-02-11T13:51:37.765Z,97.70
2023-02-11T13:54:04.683Z,97.60
2023-02-11T13:56:35.866Z,97.50
2023-02-11T13:59:06.672Z,97.60
2023-02-11T14:02:11.701Z,97.50
2023-02-11T14:05:17.105Z,97.40
2023-02-11T14:08:22.241Z,97.40
2023-02-11T14:10:49.491Z,97.50
2023-02-11T14:13:24.107Z,97.40
2023-02-11T14:16:03.394Z,97.30
2023-02-11T14:18:37.211Z,97.40
2023-02-11T14:21:11.876Z,97.40
2023-02-11T14:23:38.687Z,97.30
2023-02-11T14:26:11.294Z,97.60
2023-02-11T14:28:39.043Z,97.30
2023-02-11T14:31:13.430Z,97.40
2023-02-11T14:33:46.440Z,97.40
2023-02-11T14:36:23.014Z,97.30
2023-02-11T14:38:59.592Z,97.30
2023-02-11T14:41:26.691Z,97.30
2023-02-11T14:43:54.182Z,97.20
2023-02-11T14:46:21.848Z,97.10
2023-02-11T14:48:55.391Z,97.10
2023-02-11T14:51:27.277Z,97.20
2023-02-11T14:53:58.377Z,97.20
2023-02-11T14:56:27.078Z,97.20
2023-02-11T14:58:54.273Z,97.20
2023-02-11T15:01:29.807Z,97.10
2023-02-11T15:03:58.426Z,97.20
2023-02-11T15:06:28.433Z,97.20
2023-02-11T15:09:01.239Z,97.20
2023-02-11T15:11:29.239Z,97.20
2023-02-11T15:13:56.077Z,97.20
2023-02-11T15:16:23.629Z,97.20
2023-02-11T15:18:55.398Z,97.20
2023-02-11T15:21:25.821Z,97.20
2023-02-11T15:23:57.513Z,97.30
2023-02-11T15:26:24.224Z,97.10
2023-02-11T15:28:53.849Z,97.10
2023-02-11T15:31:23.211Z,97.10
2023-02-11T15:33:50.364Z,97.10
2023-02-11T15:36:17.394Z,97.10
2023-02-11T15:38:44.036Z,97.00
2023-02-11T15:41:29.973Z,97.00
2023-02-11T15:43:56.635Z,97.00
2023-02-11T15:46:23.391Z,97.10
2023-02-11T15:48:53.524Z,97.00
2023-02-11T15:51:23.316Z,97.00
2023-02-11T15:53:52.737Z,97.00
2023-02-11T15:56:25.722Z,97.00
2023-02-11T15:58:56.153Z,97.00
2023-02-11T16:01:33.061Z,97.00
2023-02-11T16:04:00.334Z,97.00
2023-02-11T16:06:29.423Z,97.00
2023-02-11T16:08:59.490Z,97.00
2023-02-11T16:11:27.566Z,97.00
2023-02-11T16:13:54.197Z,97.10
2023-02-11T16:16:24.625Z,97.00
2023-02-11T16:19:04.982Z,97.00
2023-02-11T16:21:39.452Z,97.30
2023-02-11T16:24:07.471Z,97.00
2023-02-11T16:26:39.348Z,97.00
2023-02-11T16:29:07.110Z,97.00
2023-02-11T16:31:37.516Z,97.00
2023-02-11T16:34:08.123Z,97.00
2023-02-11T16:36:34.855Z,97.10
2023-02-11T16:39:01.550Z,97.10
2023-02-11T16:41:28.410Z,97.00
2023-02-11T16:43:57.177Z,97.00
2023-02-11T16:46:24.216Z,97.10
2023-02-11T16:48:51.161Z,97.00
2023-02-11T16:51:17.969Z,97.00
2023-02-11T16:53:44.746Z,97.10
2023-02-11T16:56:12.869Z,97.00
2023-02-11T16:58:39.626Z,97.00
2023-02-11T17:01:06.597Z,97.00
2023-02-11T17:03:37.663Z,97.00
2023-02-11T17:06:05.994Z,97.10
2023-02-11T17:08:32.795Z,97.00
2023-02-11T17:10:59.550Z,97.00
2023-02-11T17:13:26.255Z,97.00
2023-02-11T17:15:53.570Z,97.00
2023-02-11T17:18:20.527Z,97.00
2023-02-11T17:20:47.206Z,97.00
2023-02-11T17:23:14.095Z,97.00
2023-02-11T17:25:41.102Z,97.00
2023-02-11T17:28:08.581Z,97.00
2023-02-11T17:30:35.316Z,97.10
2023-02-11T17:33:02.099Z,97.00
2023-02-11T17:35:29.155Z,97.00
2023-02-11T17:37:55.884Z,97.00
2023-02-11T17:40:22.630Z,97.00
2023-02-11T17:42:50.030Z,97.00
2023-02-11T17:45:16.733Z,97.00
2023-02-11T17:47:43.596Z,97.00
2023-02-11T17:50:10.518Z,97.00
2023-02-11T17:52:37.833Z,97.00
2023-02-11T17:55:05.221Z,97.00
2023-02-11T17:57:32.015Z,97.00
2023-02-11T17:59:58.690Z,96.90
2023-02-11T18:02:25.328Z,97.00
2023-02-11T18:04:52.577Z,97.00
2023-02-11T18:07:19.978Z,97.00
2023-02-11T18:09:46.750Z,97.00
2023-02-11T18:12:13.502Z,97.00
2023-02-11T18:14:40.569Z,97.00
2023-02-11T18:17:07.329Z,97.00
2023-02-11T18:19:36.584Z,97.00
2023-02-11T18:22:04.290Z,97.00
2023-02-11T18:24:31.153Z,97.00
2023-02-11T18:26:57.881Z,97.00
2023-02-11T18:29:24.714Z,97.00
2023-02-11T18:31:52.232Z,97.00
2023-02-11T18:34:18.988Z,97.00
2023-02-11T18:36:45.628Z,97.00
2023-02-11T18:39:12.366Z,97.00
2023-02-11T18:41:41.376Z,97.00
2023-02-11T18:44:08.030Z,97.00
2023-02-11T18:46:34.832Z,97.20
2023-02-11T18:49:01.601Z,97.00
2023-02-11T18:51:28.443Z,97.00
2023-02-11T18:53:55.236Z,97.00
2023-02-11T18:56:22.806Z,97.00
2023-02-11T18:58:49.622Z,97.00
2023-02-11T19:01:17.571Z,97.00
2023-02-11T19:03:44.353Z,97.00
2023-02-11T19:06:14.622Z,97.00
2023-02-11T19:08:41.305Z,97.10
2023-02-11T19:11:07.923Z,97.10
2023-02-11T19:13:34.547Z,97.10
2023-02-11T19:16:03.671Z,97.10
2023-02-11T19:18:33.004Z,97.00
2023-02-11T19:20:59.686Z,97.00
2023-02-11T19:23:26.413Z,97.10
2023-02-11T19:25:53.253Z,97.10
2023-02-11T19:28:20.126Z,97.10
2023-02-11T19:30:46.875Z,97.10
2023-02-11T19:33:13.690Z,97.10
2023-02-11T19:35:40.639Z,97.00
2023-02-11T19:38:07.296Z,97.00
2023-02-11T19:40:33.987Z,97.00
2023-02-11T19:43:00.655Z,97.00
2023-02-11T19:45:27.430Z,97.00
2023-02-11T19:47:56.881Z,97.10
2023-02-11T19:50:23.619Z,97.10
2023-02-11T19:52:50.338Z,97.10
2023-02-11T19:55:16.933Z,97.10
2023-02-11T19:57:43.741Z,97.10
2023-02-11T20:00:11.345Z,97.10
2023-02-11T20:02:39.031Z,97.10
2023-02-11T20:05:06.132Z,97.00
2023-02-11T20:07:33.090Z,97.10
2023-02-11T20:10:00.070Z,97.10
2023-02-11T20:12:26.878Z,97.10
2023-02-11T20:14:53.577Z,97.10
2023-02-11T20:17:20.333Z,97.10
2023-02-11T20:19:46.973Z,97.10
2023-02-11T20:22:14.205Z,97.00
2023-02-11T20:24:41.417Z,97.00
2023-02-11T20:27:10.681Z,97.00
2023-02-11T20:29:38.277Z,97.00
2023-02-11T20:32:05.884Z,97.00
2023-02-11T20:34:32.760Z,97.00
2023-02-11T20:37:02.645Z,97.10
2023-02-11T20:39:29.276Z,97.00
2023-02-11T20:41:57.583Z,97.00
2023-02-11T20:44:28.418Z,97.10
2023-02-11T20:46:58.547Z,97.00
2023-02-11T20:49:28.554Z,97.10
2023-02-11T20:52:00.954Z,97.10
2023-02-11T20:54:27.795Z,97.10
2023-02-11T20:56:55.371Z,97.10
2023-02-11T20:59:22.888Z,97.10
2023-02-11T21:01:50.527Z,97.10
2023-02-11T21:04:18.161Z,97.10
2023-02-11T21:06:45.483Z,97.10
2023-02-11T21:09:12.964Z,97.10
2023-02-11T21:11:39.677Z,97.10
2023-02-11T21:14:06.338Z,97.10
2023-02-11T21:16:33.171Z,97.20
2023-02-11T21:19:00.640Z,97.10
2023-02-11T21:21:27.572Z,97.20
2023-02-11T21:23:56.075Z,97.20
2023-02-11T21:26:22.917Z,97.20
2023-02-11T21:28:50.116Z,97.10
2023-02-11T21:31:21.867Z,97.10
2023-02-11T21:33:49.298Z,97.10
2023-02-11T21:36:16.042Z,97.20
2023-02-11T21:39:10.013Z,97.20
2023-02-11T21:41:39.641Z,97.10
2023-02-11T21:44:06.531Z,97.20
2023-02-11T21:46:34.499Z,97.30
2023-02-11T21:49:01.186Z,97.20
2023-02-11T21:51:27.962Z,97.20
2023-02-11T21:53:55.780Z,97.20
2023-02-11T21:56:22.684Z,97.20
2023-02-11T21:58:51.463Z,97.20
2023-02-11T22:01:18.822Z,97.20
2023-02-11T22:03:45.489Z,97.20
2023-02-11T22:06:12.863Z,97.20
2023-02-11T22:08:39.701Z,97.20
2023-02-11T22:11:06.819Z,97.20
2023-02-11T22:13:33.714Z,97.20
2023-02-11T22:16:00.815Z,97.20
2023-02-11T22:18:30.886Z,97.20
2023-02-11T22:21:02.151Z,97.20
2023-02-11T22:23:29.859Z,97.20
2023-02-11T22:26:00.150Z,97.30
2023-02-11T22:28:28.099Z,97.20
2023-02-11T22:30:55.562Z,97.10
2023-02-11T22:33:31.618Z,97.20
2023-02-11T22:36:02.254Z,97.10
2023-02-11T22:38:29.429Z,97.10
2023-02-11T22:40:56.188Z,97.10
2023-02-11T22:43:25.358Z,97.10
2023-02-11T22:45:52.425Z,97.10
2023-02-11T22:48:22.774Z,97.10
2023-02-11T22:50:52.501Z,97.10
2023-02-11T22:53:25.753Z,97.10
2023-02-11T22:55:53.905Z,97.10
2023-02-11T22:58:20.947Z,97.40
2023-02-11T23:00:48.457Z,97.20
2023-02-11T23:03:21.353Z,97.20
2023-02-11T23:05:49.223Z,97.10
2023-02-11T23:08:16.755Z,97.10
2023-02-11T23:10:46.182Z,97.20
2023-02-11T23:13:13.003Z,97.10
2023-02-11T23:15:40.761Z,97.20
2023-02-11T23:18:10.489Z,97.10
2023-02-11T23:20:40.239Z,97.10
2023-02-11T23:23:07.116Z,97.10
2023-02-11T23:25:39.812Z,97.20
2023-02-11T23:28:06.557Z,97.10
2023-02-11T23:30:36.658Z,97.10
2023-02-11T23:33:03.915Z,97.20
2023-02-11T23:35:30.641Z,97.30
2023-02-11T23:37:58.070Z,97.20
2023-02-11T23:40:24.775Z,97.20
2023-02-11T23:42:51.666Z,97.30
2023-02-11T23:45:19.867Z,97.20
2023-02-11T23:47:50.393Z,97.30
2023-02-11T23:50:17.132Z,97.20
2023-02-11T23:52:48.106Z,97.20
2023-02-11T23:55:24.265Z,97.20
2023-02-11T23:57:51.691Z,97.20
